createdAt,value
2022-11-07T00:04:08.374Z,7.17
2022-11-07T00:15:13.412Z,7.16
2022-11-07T01:50:24.660Z,7.48
2022-11-07T02:28:08.431Z,7.59
2022-11-07T02:48:32.725Z,7.56
2022-11-07T02:59:32.468Z,7.58
2022-11-07T03:01:59.623Z,7.63
2022-11-07T03:04:26.845Z,7.64
2022-11-07T03:11:21.402Z,7.65
2022-11-07T03:13:49.963Z,7.67
2022-11-07T03:16:18.461Z,7.59
2022-11-07T03:18:45.541Z,7.59
2022-11-07T03:21:12.767Z,7.63
2022-11-07T03:27:51.472Z,7.62
2022-11-07T03:35:29.267Z,7.64
2022-11-07T03:42:20.484Z,7.77
2022-11-07T03:44:47.673Z,7.76
2022-11-07T03:47:14.788Z,7.79
2022-11-07T03:49:41.962Z,7.80
2022-11-07T03:52:09.172Z,7.81
2022-11-07T03:58:49.650Z,7.90
2022-11-07T04:01:16.805Z,7.87
2022-11-07T04:03:44.015Z,7.85
2022-11-07T04:19:26.495Z,8.03
2022-11-07T04:34:46.643Z,8.21
2022-11-07T04:37:13.746Z,8.24
2022-11-07T04:39:40.855Z,8.28
2022-11-07T04:46:32.659Z,8.24
2022-11-07T04:48:59.783Z,8.25
2022-11-07T04:51:27.688Z,8.25
2022-11-07T04:53:54.815Z,8.27
2022-11-07T04:56:22.082Z,8.34
2022-11-07T04:58:49.235Z,8.29
2022-11-07T05:40:05.411Z,8.37
2022-11-07T05:42:32.527Z,8.43
2022-11-07T06:23:44.637Z,8.62
2022-11-07T06:26:11.808Z,8.55
2022-11-07T06:50:20.923Z,8.63
2022-11-07T06:52:48.068Z,8.63
2022-11-07T06:55:15.355Z,8.56
2022-11-07T06:57:42.467Z,8.53
2022-11-07T07:00:10.174Z,8.53
2022-11-07T07:02:57.351Z,8.52
2022-11-07T07:05:24.747Z,8.53
2022-11-07T07:07:52.074Z,8.57
2022-11-07T07:10:19.435Z,8.58
2022-11-07T07:12:46.692Z,8.58
2022-11-07T07:15:13.973Z,8.63
2022-11-07T07:17:41.164Z,8.65
2022-11-07T07:20:08.959Z,8.67
2022-11-07T07:22:36.133Z,8.65
2022-11-07T07:25:03.305Z,8.65
2022-11-07T07:27:30.517Z,8.65
2022-11-07T07:29:57.776Z,8.65
2022-11-07T07:32:25.226Z,8.67
2022-11-07T07:34:52.514Z,8.65
2022-11-07T07:37:19.610Z,8.77
2022-11-07T07:39:46.738Z,8.83
2022-11-07T07:42:13.845Z,8.82
2022-11-07T07:44:40.960Z,8.81
2022-11-07T07:47:11.232Z,8.79
2022-11-07T07:49:38.981Z,8.76
2022-11-07T07:52:06.227Z,8.80
2022-11-07T07:54:33.326Z,8.83
2022-11-07T07:57:01.522Z,8.84
2022-11-07T07:59:28.702Z,8.87
2022-11-07T08:01:57.383Z,8.93
2022-11-07T08:04:24.769Z,8.96
2022-11-07T08:06:51.889Z,8.99
2022-11-07T08:09:19.019Z,9.03
2022-11-07T08:11:46.097Z,9.08
2022-11-07T08:14:13.246Z,9.16
2022-11-07T08:16:40.386Z,9.23
2022-11-07T08:19:07.517Z,9.25
2022-11-07T08:21:34.700Z,9.34
2022-11-07T08:24:03.382Z,9.37
2022-11-07T08:26:31.324Z,9.37
2022-11-07T08:28:58.573Z,9.46
2022-11-07T08:31:25.703Z,9.51
2022-11-07T08:33:52.968Z,9.55
2022-11-07T08:36:20.132Z,9.57
2022-11-07T08:38:47.287Z,9.67
2022-11-07T08:41:18.334Z,9.72
2022-11-07T08:43:49.269Z,9.79
2022-11-07T08:46:16.435Z,9.87
2022-11-07T08:48:43.669Z,9.89
2022-11-07T08:51:10.789Z,10.06
2022-11-07T08:53:37.909Z,10.13
2022-11-07T08:56:08.226Z,10.12
2022-11-07T08:58:36.238Z,10.17
2022-11-07T09:01:07.625Z,10.17
2022-11-07T09:03:57.558Z,10.17
2022-11-07T09:06:23.566Z,10.24
2022-11-07T09:08:50.819Z,10.27
2022-11-07T09:11:19.119Z,10.29
2022-11-07T09:13:49.331Z,10.32
2022-11-07T09:16:20.026Z,10.33
2022-11-07T09:18:48.148Z,10.38
2022-11-07T09:21:21.768Z,10.39
2022-11-07T09:23:50.761Z,10.46
2022-11-07T09:26:17.943Z,10.45
2022-11-07T09:28:50.936Z,10.48
2022-11-07T09:31:19.414Z,10.55
2022-11-07T09:33:46.564Z,10.58
2022-11-07T09:36:13.702Z,10.72
2022-11-07T09:38:40.910Z,10.76
2022-11-07T09:41:44.054Z,10.84
2022-11-07T09:44:13.376Z,10.95
2022-11-07T09:46:59.386Z,11.05
2022-11-07T09:49:29.487Z,11.18
2022-11-07T09:52:03.788Z,11.26
2022-11-07T09:54:34.023Z,11.29
2022-11-07T09:57:02.142Z,11.31
2022-11-07T09:59:38.212Z,11.34
2022-11-07T10:02:14.189Z,11.44
2022-11-07T10:04:41.876Z,11.44
2022-11-07T10:07:20.313Z,11.50
2022-11-07T10:09:59.219Z,11.55
2022-11-07T10:12:52.472Z,11.71
2022-11-07T10:15:28.470Z,11.83
2022-11-07T10:18:07.388Z,11.95
2022-11-07T10:21:31.011Z,12.04
2022-11-07T10:24:23.840Z,12.10
2022-11-07T10:26:51.015Z,12.11
2022-11-07T10:29:24.304Z,12.16
2022-11-07T10:31:58.112Z,12.27
2022-11-07T10:34:36.811Z,12.29
2022-11-07T10:37:04.486Z,12.39
2022-11-07T10:39:32.087Z,12.51
2022-11-07T10:42:02.698Z,12.64
2022-11-07T10:44:29.940Z,12.77
2022-11-07T10:46:57.071Z,13.00
2022-11-07T10:49:30.263Z,13.30
2022-11-07T10:52:08.678Z,13.39
2022-11-07T10:54:36.036Z,13.46
2022-11-07T10:57:16.291Z,13.59
2022-11-07T10:59:56.224Z,13.73
2022-11-07T11:02:25.818Z,13.83
2022-11-07T11:05:02.532Z,13.85
2022-11-07T11:07:40.653Z,13.92
2022-11-07T11:10:28.607Z,14.11
2022-11-07T11:12:56.365Z,14.24
2022-11-07T11:15:25.210Z,14.37
2022-11-07T11:18:00.654Z,14.57
2022-11-07T11:20:27.862Z,14.67
2022-11-07T11:22:55.164Z,14.81
2022-11-07T11:25:23.821Z,14.81
2022-11-07T11:27:55.604Z,14.75
2022-11-07T11:30:22.786Z,14.83
2022-11-07T11:33:11.562Z,15.07
2022-11-07T11:35:42.449Z,15.11
2022-11-07T11:38:29.608Z,15.07
2022-11-07T11:41:10.311Z,14.96
2022-11-07T11:43:48.130Z,15.00
2022-11-07T11:46:24.359Z,15.29
2022-11-07T11:49:00.689Z,15.34
2022-11-07T11:51:30.692Z,15.72
2022-11-07T11:53:57.811Z,16.17
2022-11-07T11:56:39.366Z,16.13
2022-11-07T11:59:15.766Z,15.97
2022-11-07T12:01:54.708Z,16.20
2022-11-07T12:04:40.594Z,16.30
2022-11-07T12:07:10.256Z,16.09
2022-11-07T12:09:48.579Z,15.64
2022-11-07T12:12:55.946Z,15.63
2022-11-07T12:15:23.020Z,15.88
2022-11-07T12:18:19.478Z,15.94
2022-11-07T12:20:52.585Z,15.91
2022-11-07T12:23:52.109Z,16.06
2022-11-07T12:26:29.058Z,15.93
2022-11-07T12:29:28.628Z,15.70
2022-11-07T12:32:14.343Z,15.77
2022-11-07T12:35:02.735Z,16.05
2022-11-07T12:38:08.373Z,16.59
2022-11-07T12:40:47.362Z,16.81
2022-11-07T12:43:20.356Z,16.83
2022-11-07T12:46:19.453Z,17.04
2022-11-07T12:48:49.104Z,17.18
2022-11-07T12:51:34.107Z,17.24
2022-11-07T12:54:21.607Z,16.89
2022-11-07T12:56:49.470Z,16.73
2022-11-07T12:59:26.642Z,16.41
2022-11-07T13:02:02.936Z,16.01
2022-11-07T13:04:38.766Z,15.57
2022-11-07T13:07:30.776Z,15.37
2022-11-07T13:10:19.882Z,15.37
2022-11-07T13:13:12.537Z,15.11
2022-11-07T13:16:09.100Z,14.93
2022-11-07T13:18:28.677Z,14.78
2022-11-07T13:21:03.175Z,14.67
2022-11-07T13:23:30.454Z,14.64
2022-11-07T13:25:59.606Z,14.67
2022-11-07T13:28:35.861Z,14.70
2022-11-07T13:31:07.581Z,14.51
2022-11-07T13:33:35.936Z,14.36
2022-11-07T13:36:15.361Z,14.23
2022-11-07T13:38:54.321Z,14.21
2022-11-07T13:41:22.652Z,14.15
2022-11-07T13:43:58.311Z,14.21
2022-11-07T13:46:29.782Z,14.11
2022-11-07T13:49:01.012Z,14.02
2022-11-07T14:09:18.049Z,13.74
2022-11-07T14:11:46.120Z,13.66
2022-11-07T14:41:26.865Z,13.47
2022-11-07T14:44:02.783Z,13.47
2022-11-07T15:05:10.655Z,13.37
2022-11-07T15:07:46.931Z,13.38
2022-11-07T15:10:24.786Z,13.34
2022-11-07T15:12:55.069Z,13.27
2022-11-07T15:15:24.377Z,13.22
2022-11-07T15:17:53.691Z,13.21
2022-11-07T15:20:35.921Z,13.15
2022-11-07T15:23:13.725Z,13.16
2022-11-07T15:25:50.819Z,13.16
2022-11-07T15:28:18.386Z,13.20
2022-11-07T15:30:47.515Z,13.20
2022-11-07T15:33:18.939Z,13.15
2022-11-07T16:17:51.794Z,12.99
2022-11-07T16:20:22.977Z,13.03
2022-11-07T16:22:50.810Z,13.06
2022-11-07T17:41:32.170Z,12.26
2022-11-07T17:57:08.917Z,12.32
2022-11-07T18:46:45.929Z,12.32
2022-11-07T18:49:14.175Z,12.28
2022-11-07T18:51:43.899Z,12.29
2022-11-07T19:51:39.256Z,11.92
2022-11-07T22:37:40.024Z,11.37
2022-11-07T22:44:25.379Z,11.16
2022-11-07T22:51:17.326Z,11.21
2022-11-07T23:19:36.312Z,11.09
2022-11-07T23:58:25.971Z,11.05
